Time;durP1;ratioP1;P1;durP2;ratioP2;P2;SDS_P1;SDS_P2;PMS_P1;PMS_P2;Temp;Humidity;BMP_temperature;BMP_pressure;BME280_temperature;BME280_humidity;BME280_pressure;Samples;Min_cycle;Max_cycle;Signal;HPM_P1;HPM_P2
2022/09/08 00:02:25;;;;;;;;;;;16.50;1.00;;;;;;4954727;28;20114;-87
2022/09/08 00:04:52;;;;;;;;;;;16.50;1.00;;;;;;4941152;28;20369;-87
2022/09/08 00:07:21;;;;;;;;;;;16.40;1.00;;;;;;4935356;29;19970;-87
2022/09/08 00:09:48;;;;;;;;;;;16.50;1.00;;;;;;4935685;29;19927;-87
2022/09/08 00:12:18;;;;;;;;;;;16.40;1.00;;;;;;4935474;29;19961;-87
2022/09/08 00:14:45;;;;;;;;;;;16.40;1.00;;;;;;4935530;29;19931;-87
2022/09/08 00:17:12;;;;;;;;;;;16.40;1.00;;;;;;4935378;29;19927;-86
2022/09/08 00:19:38;;;;;;;;;;;16.40;1.00;;;;;;4935256;29;19934;-87
2022/09/08 00:22:05;;;;;;;;;;;16.30;1.00;;;;;;4935220;29;20335;-86
2022/09/08 00:24:33;;;;;;;;;;;16.30;1.00;;;;;;4935259;29;20333;-87
2022/09/08 00:27:00;;;;;;;;;;;16.30;1.00;;;;;;4935165;29;20010;-87
2022/09/08 00:29:28;;;;;;;;;;;16.30;1.00;;;;;;4935079;29;19930;-87
2022/09/08 00:31:54;;;;;;;;;;;16.20;1.00;;;;;;4935937;29;19960;-87
2022/09/08 00:34:21;;;;;;;;;;;16.20;1.00;;;;;;4939127;29;19926;-86
2022/09/08 00:36:48;;;;;;;;;;;16.20;1.00;;;;;;4939425;29;20076;-86
2022/09/08 00:39:15;;;;;;;;;;;16.10;1.00;;;;;;4939319;29;19953;-87
2022/09/08 00:41:42;;;;;;;;;;;16.20;1.00;;;;;;4939169;29;19976;-87
2022/09/08 00:44:26;;;;;;;;;;;16.10;1.00;;;;;;4938837;29;19952;-86
2022/09/08 00:46:56;;;;;;;;;;;16.10;1.00;;;;;;4938504;29;19931;-87
2022/09/08 00:49:23;;;;;;;;;;;16.00;1.00;;;;;;4938641;29;19974;-87
2022/09/08 00:51:50;;;;;;;;;;;16.00;1.00;;;;;;4938780;29;20345;-87
2022/09/08 00:54:18;;;;;;;;;;;16.00;1.00;;;;;;4938805;29;19982;-86
2022/09/08 00:56:46;;;;;;;;;;;15.90;1.00;;;;;;4938511;29;20348;-86
2022/09/08 00:59:15;;;;;;;;;;;15.90;1.00;;;;;;4938488;29;19926;-87
2022/09/08 01:01:42;;;;;;;;;;;15.90;1.00;;;;;;4938683;29;19934;-86
2022/09/08 01:04:10;;;;;;;;;;;15.90;1.00;;;;;;4947758;29;19927;-87
2022/09/08 01:15:06;;;;;;;;;;;15.80;1.00;;;;;;4957472;29;19972;-86
2022/09/08 01:17:33;;;;;;;;;;;15.70;1.00;;;;;;4957528;28;19972;-87
2022/09/08 01:20:01;;;;;;;;;;;15.80;1.00;;;;;;4957659;28;19926;-87
2022/09/08 01:22:37;;;;;;;;;;;15.70;1.00;;;;;;4957515;28;19981;-87
2022/09/08 01:25:12;;;;;;;;;;;15.70;1.00;;;;;;4957318;28;20421;-87
2022/09/08 01:27:40;;;;;;;;;;;15.70;1.00;;;;;;4957449;28;19931;-86
2022/09/08 01:30:08;;;;;;;;;;;15.70;1.00;;;;;;4957347;28;20013;-87
2022/09/08 01:32:36;;;;;;;;;;;15.60;1.00;;;;;;4957258;28;19977;-87
2022/09/08 01:35:03;;;;;;;;;;;15.60;1.00;;;;;;4940914;28;20344;-86
2022/09/08 01:37:30;;;;;;;;;;;15.60;1.00;;;;;;4938113;29;20344;-87
2022/09/08 01:39:57;;;;;;;;;;;15.60;1.00;;;;;;4938064;29;20343;-87
2022/09/08 01:42:24;;;;;;;;;;;15.60;1.00;;;;;;4937671;29;19933;-86
2022/09/08 01:44:52;;;;;;;;;;;15.60;1.00;;;;;;4937524;29;19981;-87
2022/09/08 01:47:18;;;;;;;;;;;15.60;1.00;;;;;;4938098;29;19931;-86
2022/09/08 01:49:45;;;;;;;;;;;15.60;1.00;;;;;;4937527;29;20464;-86
2022/09/08 01:52:12;;;;;;;;;;;15.60;1.00;;;;;;4937511;29;20366;-86
2022/09/08 01:54:39;;;;;;;;;;;15.50;1.00;;;;;;4937445;29;19926;-86
2022/09/08 01:57:05;;;;;;;;;;;15.60;1.00;;;;;;4937391;29;19931;-86
2022/09/08 01:59:32;;;;;;;;;;;15.60;1.00;;;;;;4937391;29;19931;-87
2022/09/08 02:02:01;;;;;;;;;;;15.60;1.00;;;;;;4937398;29;19930;-87
2022/09/08 02:04:28;;;;;;;;;;;15.60;1.00;;;;;;4951457;29;20327;-87
2022/09/08 02:06:54;;;;;;;;;;;15.60;1.00;;;;;;4956334;28;20380;-86
2022/09/08 02:09:21;;;;;;;;;;;15.60;1.00;;;;;;4956509;28;20384;-86
2022/09/08 02:11:48;;;;;;;;;;;15.50;1.00;;;;;;4956683;28;19969;-87
2022/09/08 02:14:15;;;;;;;;;;;15.50;1.00;;;;;;4956708;28;19930;-86
2022/09/08 02:16:43;;;;;;;;;;;15.50;1.00;;;;;;4956131;28;20439;-87
2022/09/08 02:19:12;;;;;;;;;;;15.40;1.00;;;;;;4957072;28;19934;-86
2022/09/08 02:21:39;;;;;;;;;;;15.40;1.00;;;;;;4956460;28;19927;-87
2022/09/08 02:24:05;;;;;;;;;;;15.40;1.00;;;;;;4956351;28;19977;-87
2022/09/08 02:26:32;;;;;;;;;;;15.40;1.00;;;;;;4956363;28;19931;-88
2022/09/08 02:28:59;;;;;;;;;;;15.40;1.00;;;;;;4955958;28;20364;-86
2022/09/08 02:31:27;;;;;;;;;;;15.40;1.00;;;;;;4956172;28;20388;-86
2022/09/08 02:33:54;;;;;;;;;;;15.30;1.00;;;;;;4946409;28;19974;-87
2022/09/08 02:36:22;;;;;;;;;;;15.30;1.00;;;;;;4936710;29;20270;-86
2022/09/08 02:38:50;;;;;;;;;;;15.30;1.00;;;;;;4936656;29;20444;-87
2022/09/08 02:41:17;;;;;;;;;;;15.30;1.00;;;;;;4936515;29;19974;-86
2022/09/08 02:43:43;;;;;;;;;;;15.30;1.00;;;;;;4936490;29;19982;-87
2022/09/08 02:46:10;;;;;;;;;;;15.30;1.00;;;;;;4936498;29;20281;-86
2022/09/08 02:48:37;;;;;;;;;;;15.30;1.00;;;;;;4936771;29;19931;-86
2022/09/08 02:51:05;;;;;;;;;;;15.30;1.00;;;;;;4936791;29;19998;-87
2022/09/08 02:53:33;;;;;;;;;;;15.30;1.00;;;;;;4936746;29;19926;-87
2022/09/08 02:56:01;;;;;;;;;;;15.30;1.00;;;;;;4935278;29;19927;-86
2022/09/08 02:58:28;;;;;;;;;;;15.30;1.00;;;;;;4936505;29;19927;-86
2022/09/08 03:00:55;;;;;;;;;;;15.30;1.00;;;;;;4941254;29;20226;-86
2022/09/08 03:03:23;;;;;;;;;;;15.30;1.00;;;;;;4950209;29;19981;-86
2022/09/08 03:05:50;;;;;;;;;;;15.20;1.00;;;;;;4954842;28;20354;-87
2022/09/08 03:08:17;;;;;;;;;;;15.20;1.00;;;;;;4954654;28;19934;-86
2022/09/08 03:10:48;;;;;;;;;;;15.20;1.00;;;;;;4955192;28;19930;-86
2022/09/08 03:13:15;;;;;;;;;;;15.20;1.00;;;;;;4936162;29;19927;-86
2022/09/08 03:15:42;;;;;;;;;;;15.20;1.00;;;;;;4936250;29;20261;-87
2022/09/08 03:18:09;;;;;;;;;;;15.20;1.00;;;;;;4936043;29;19941;-86
2022/09/08 03:20:37;;;;;;;;;;;15.20;1.00;;;;;;4952668;29;19930;-86
2022/09/08 03:23:04;;;;;;;;;;;15.20;1.00;;;;;;4954692;28;19927;-87
2022/09/08 03:25:35;;;;;;;;;;;15.20;1.00;;;;;;4955333;28;19926;-87
2022/09/08 03:28:04;;;;;;;;;;;15.20;1.00;;;;;;4955027;28;19934;-86
2022/09/08 03:30:30;;;;;;;;;;;15.10;1.00;;;;;;4954848;28;20264;-87
2022/09/08 03:32:57;;;;;;;;;;;15.10;1.00;;;;;;4952175;28;19926;-87
2022/09/08 03:35:24;;;;;;;;;;;15.10;1.00;;;;;;4941878;29;19927;-87
2022/09/08 03:37:51;;;;;;;;;;;15.10;1.00;;;;;;4936116;29;19982;-87
2022/09/08 03:40:18;;;;;;;;;;;15.10;1.00;;;;;;4935943;29;19931;-87
2022/09/08 03:42:45;;;;;;;;;;;15.10;1.00;;;;;;4935647;29;19934;-87
2022/09/08 03:45:14;;;;;;;;;;;15.10;1.00;;;;;;4935792;29;19990;-86
2022/09/08 03:47:42;;;;;;;;;;;15.10;1.00;;;;;;4943804;29;19927;-86
2022/09/08 03:50:09;;;;;;;;;;;15.00;1.00;;;;;;4955399;29;19949;-87
2022/09/08 03:52:36;;;;;;;;;;;15.00;1.00;;;;;;4954886;28;19931;-87
2022/09/08 03:55:03;;;;;;;;;;;15.00;1.00;;;;;;4954572;28;19926;-87
2022/09/08 03:57:30;;;;;;;;;;;15.00;1.00;;;;;;4954964;28;19926;-86
2022/09/08 04:00:16;;;;;;;;;;;15.00;1.00;;;;;;4954811;28;19926;-87
2022/09/08 04:02:44;;;;;;;;;;;15.00;1.00;;;;;;4954274;28;20291;-86
2022/09/08 04:05:11;;;;;;;;;;;15.00;1.00;;;;;;4954505;28;19927;-86
2022/09/08 04:07:38;;;;;;;;;;;15.00;1.00;;;;;;4955519;28;19926;-85
2022/09/08 04:10:06;;;;;;;;;;;14.90;1.00;;;;;;4958156;28;19981;-84
2022/09/08 04:12:33;;;;;;;;;;;14.70;1.00;;;;;;4939489;29;19934;-83
2022/09/08 04:15:00;;;;;;;;;;;14.60;1.00;;;;;;4939453;29;20376;-83
2022/09/08 04:17:27;;;;;;;;;;;14.30;1.00;;;;;;4955297;29;19992;-83
2022/09/08 04:19:55;;;;;;;;;;;14.10;1.00;;;;;;4958300;28;19933;-82
2022/09/08 04:22:22;;;;;;;;;;;13.90;1.00;;;;;;4958522;28;20343;-83
2022/09/08 04:24:49;;;;;;;;;;;13.70;1.00;;;;;;4958420;28;19926;-83
2022/09/08 04:27:16;;;;;;;;;;;13.50;1.00;;;;;;4958389;28;19982;-83
2022/09/08 04:29:43;;;;;;;;;;;13.30;1.00;;;;;;4958507;28;19930;-84
2022/09/08 04:32:10;;;;;;;;;;;13.10;1.00;;;;;;4958229;28;19930;-84
2022/09/08 04:34:37;;;;;;;;;;;13.00;1.00;;;;;;4952714;29;20063;-83
2022/09/08 04:37:06;;;;;;;;;;;12.90;1.00;;;;;;4958008;28;20383;-85
2022/09/08 04:39:33;;;;;;;;;;;12.80;1.00;;;;;;4957270;28;19926;-84
2022/09/08 04:41:59;;;;;;;;;;;12.80;1.00;;;;;;4957414;29;19926;-84
2022/09/08 04:44:26;;;;;;;;;;;12.70;1.00;;;;;;4957457;28;19993;-84
2022/09/08 04:46:53;;;;;;;;;;;12.70;1.00;;;;;;4957307;28;19982;-85
2022/09/08 04:49:20;;;;;;;;;;;12.70;1.00;;;;;;4957255;28;20451;-86
2022/09/08 04:51:49;;;;;;;;;;;12.60;1.00;;;;;;4957229;28;20015;-84
2022/09/08 04:54:17;;;;;;;;;;;12.60;1.00;;;;;;4957201;28;20017;-83
2022/09/08 04:56:44;;;;;;;;;;;12.50;1.00;;;;;;4957488;28;19931;-81
2022/09/08 04:59:11;;;;;;;;;;;12.20;3.40;;;;;;4957494;28;20434;-84
2022/09/08 05:01:38;;;;;;;;;;;12.10;99.90;;;;;;4957732;28;19974;-85
2022/09/08 05:04:05;;;;;;;;;;;11.90;99.90;;;;;;4955812;28;19982;-84
2022/09/08 05:06:33;;;;;;;;;;;11.70;99.90;;;;;;4952750;29;19948;-84
2022/09/08 05:09:00;;;;;;;;;;;11.50;99.90;;;;;;4958011;28;19981;-85
2022/09/08 05:11:29;;;;;;;;;;;11.40;99.90;;;;;;4957447;28;19979;-84
2022/09/08 05:13:56;;;;;;;;;;;11.30;99.90;;;;;;4957479;28;19927;-86
2022/09/08 05:16:24;;;;;;;;;;;11.20;99.90;;;;;;4957608;28;19974;-85
2022/09/08 05:18:52;;;;;;;;;;;11.10;1.00;;;;;;4955782;28;19945;-87
2022/09/08 05:21:19;;;;;;;;;;;11.00;1.00;;;;;;4956426;28;19926;-87
2022/09/08 05:23:45;;;;;;;;;;;10.90;1.00;;;;;;4956046;28;19926;-88
2022/09/08 05:26:13;;;;;;;;;;;10.90;1.00;;;;;;4957699;28;20071;-87
2022/09/08 05:28:41;;;;;;;;;;;10.80;99.90;;;;;;4957805;28;19926;-87
2022/09/08 05:31:09;;;;;;;;;;;10.70;99.90;;;;;;4957808;28;19926;-87
2022/09/08 05:33:36;;;;;;;;;;;10.60;1.00;;;;;;4943643;28;19927;-86
2022/09/08 05:36:08;;;;;;;;;;;10.60;1.00;;;;;;4937787;29;19974;-86
2022/09/08 05:38:36;;;;;;;;;;;10.50;1.00;;;;;;4938401;29;19981;-86
2022/09/08 05:41:02;;;;;;;;;;;10.50;1.00;;;;;;4938514;29;19927;-87
2022/09/08 05:43:29;;;;;;;;;;;10.50;1.00;;;;;;4938104;29;20393;-87
2022/09/08 05:45:57;;;;;;;;;;;10.50;1.00;;;;;;4937909;29;19930;-87
2022/09/08 05:48:24;;;;;;;;;;;10.50;99.90;;;;;;4937130;29;19927;-86
2022/09/08 05:50:51;;;;;;;;;;;10.50;99.90;;;;;;4937988;29;19927;-86
2022/09/08 05:53:18;;;;;;;;;;;10.50;1.00;;;;;;4937837;29;20394;-86
2022/09/08 05:55:55;;;;;;;;;;;10.50;1.00;;;;;;4937898;29;19927;-86
2022/09/08 05:58:21;;;;;;;;;;;10.50;99.90;;;;;;4937526;29;19926;-86
2022/09/08 06:00:53;;;;;;;;;;;10.50;1.00;;;;;;4937674;29;19931;-87
2022/09/08 06:03:21;;;;;;;;;;;10.50;99.90;;;;;;4937484;29;19930;-85
2022/09/08 06:05:48;;;;;;;;;;;10.50;99.90;;;;;;4937204;29;19935;-83
2022/09/08 06:08:14;;;;;;;;;;;10.50;1.00;;;;;;4937673;29;19982;-84
2022/09/08 06:10:41;;;;;;;;;;;10.60;99.90;;;;;;4937177;29;19931;-85
2022/09/08 06:13:08;;;;;;;;;;;10.60;1.00;;;;;;4936985;29;19931;-86
2022/09/08 06:15:35;;;;;;;;;;;10.60;31.80;;;;;;4936723;29;19926;-87
2022/09/08 06:18:04;;;;;;;;;;;10.60;1.00;;;;;;4936589;29;19934;-85
2022/09/08 06:20:32;;;;;;;;;;;10.60;99.90;;;;;;4936924;29;20390;-86
2022/09/08 06:22:59;;;;;;;;;;;10.70;1.00;;;;;;4937406;29;19956;-87
2022/09/08 06:25:26;;;;;;;;;;;10.60;1.00;;;;;;4936894;29;19927;-86
2022/09/08 06:27:57;;;;;;;;;;;10.60;99.90;;;;;;4936268;29;19988;-86
2022/09/08 06:30:24;;;;;;;;;;;10.60;99.90;;;;;;4935424;29;20257;-86
2022/09/08 06:32:53;;;;;;;;;;;10.60;1.00;;;;;;4944902;29;20276;-86
2022/09/08 06:35:22;;;;;;;;;;;10.60;99.90;;;;;;4955811;28;19926;-86
2022/09/08 06:37:52;;;;;;;;;;;10.60;99.90;;;;;;4956503;28;19994;-87
2022/09/08 06:40:24;;;;;;;;;;;10.60;99.90;;;;;;4956355;28;19981;-86
2022/09/08 06:42:57;;;;;;;;;;;10.60;1.00;;;;;;4956042;28;19926;-86
2022/09/08 06:45:25;;;;;;;;;;;10.60;1.00;;;;;;4956231;28;19927;-87
2022/09/08 06:48:18;;;;;;;;;;;10.60;99.90;;;;;;4956071;28;19927;-86
2022/09/08 06:50:49;;;;;;;;;;;10.60;99.90;;;;;;4955862;28;20384;-87
2022/09/08 06:53:20;;;;;;;;;;;10.70;1.00;;;;;;4955662;28;19926;-87
2022/09/08 06:55:50;;;;;;;;;;;10.70;43.50;;;;;;4956056;28;19930;-87
2022/09/08 06:58:21;;;;;;;;;;;10.80;1.00;;;;;;4955583;28;19926;-86
2022/09/08 07:00:50;;;;;;;;;;;10.80;1.00;;;;;;4955688;28;20479;-86
2022/09/08 07:03:22;;;;;;;;;;;10.80;1.00;;;;;;4943301;28;19934;-87
2022/09/08 07:06:01;;;;;;;;;;;10.80;1.00;;;;;;4939185;29;20340;-87
2022/09/08 07:08:41;;;;;;;;;;;10.90;1.00;;;;;;4936519;29;20387;-87
2022/09/08 07:11:14;;;;;;;;;;;10.90;1.00;;;;;;4936466;29;20376;-86
2022/09/08 07:13:44;;;;;;;;;;;11.00;99.90;;;;;;4936187;29;19990;-86
2022/09/08 07:16:15;;;;;;;;;;;11.00;99.90;;;;;;4936342;29;20277;-86
2022/09/08 07:18:43;;;;;;;;;;;11.00;45.90;;;;;;4936140;29;19927;-86
2022/09/08 07:21:15;;;;;;;;;;;11.10;99.90;;;;;;4936141;29;19974;-87
2022/09/08 07:23:44;;;;;;;;;;;11.20;1.00;;;;;;4936360;29;19974;-86
2022/09/08 07:26:16;;;;;;;;;;;11.20;99.90;;;;;;4936234;29;20440;-86
2022/09/08 07:28:44;;;;;;;;;;;11.30;99.90;;;;;;4935802;29;19960;-86
2022/09/08 07:31:18;;;;;;;;;;;11.30;24.60;;;;;;4936264;29;19990;-86
2022/09/08 07:33:46;;;;;;;;;;;11.30;99.90;;;;;;4935634;29;19980;-86
2022/09/08 07:36:16;;;;;;;;;;;11.40;1.00;;;;;;4935746;29;19949;-86
2022/09/08 07:38:46;;;;;;;;;;;11.40;1.00;;;;;;4936052;29;19974;-86
2022/09/08 07:41:20;;;;;;;;;;;11.50;99.90;;;;;;4935957;29;19927;-86
2022/09/08 07:43:48;;;;;;;;;;;11.50;99.90;;;;;;4935843;29;19927;-86
2022/09/08 07:46:25;;;;;;;;;;;11.50;1.00;;;;;;4935566;29;20040;-86
2022/09/08 07:48:56;;;;;;;;;;;11.50;99.90;;;;;;4936002;29;19982;-87
2022/09/08 07:51:27;;;;;;;;;;;11.50;1.00;;;;;;4935628;29;20384;-86
2022/09/08 07:54:11;;;;;;;;;;;11.50;1.00;;;;;;4935575;29;20439;-86
2022/09/08 07:56:41;;;;;;;;;;;11.40;99.90;;;;;;4935597;29;19978;-85
2022/09/08 07:59:17;;;;;;;;;;;11.40;1.00;;;;;;4936042;29;19974;-85
2022/09/08 08:01:47;;;;;;;;;;;11.40;1.00;;;;;;4937293;29;19927;-86
2022/09/08 08:04:20;;;;;;;;;;;11.40;1.00;;;;;;4954295;28;19990;-85
2022/09/08 08:06:48;;;;;;;;;;;11.30;1.00;;;;;;4954933;28;19927;-85
2022/09/08 08:09:21;;;;;;;;;;;11.30;1.00;;;;;;4954844;28;19931;-86
2022/09/08 08:11:54;;;;;;;;;;;11.30;1.00;;;;;;4954926;28;19998;-86
2022/09/08 08:14:26;;;;;;;;;;;11.30;99.90;;;;;;4954789;28;19981;-86
2022/09/08 08:16:58;;;;;;;;;;;11.40;1.00;;;;;;4954463;28;19973;-87
2022/09/08 08:19:43;;;;;;;;;;;11.40;99.90;;;;;;4942281;28;19962;-86
2022/09/08 08:22:16;;;;;;;;;;;11.40;1.00;;;;;;4935712;29;20011;-87
2022/09/08 08:24:46;;;;;;;;;;;11.50;1.00;;;;;;4935484;29;20281;-86
2022/09/08 08:27:19;;;;;;;;;;;11.50;1.00;;;;;;4943223;28;19926;-86
2022/09/08 08:29:53;;;;;;;;;;;11.60;1.00;;;;;;4954682;28;19927;-86
2022/09/08 08:32:23;;;;;;;;;;;11.70;1.00;;;;;;4954692;28;19930;-86
2022/09/08 08:34:53;;;;;;;;;;;11.80;61.70;;;;;;4954305;28;20387;-86
2022/09/08 08:37:21;;;;;;;;;;;11.80;99.90;;;;;;4955028;28;20041;-86
2022/09/08 08:39:49;;;;;;;;;;;11.90;99.90;;;;;;4954303;28;19930;-86
2022/09/08 08:42:31;;;;;;;;;;;11.90;99.90;;;;;;4954765;28;19926;-86
2022/09/08 08:45:03;;;;;;;;;;;11.90;99.90;;;;;;4954489;28;19930;-86
2022/09/08 08:47:41;;;;;;;;;;;11.90;99.90;;;;;;4954307;28;19930;-86
2022/09/08 08:50:22;;;;;;;;;;;12.00;99.90;;;;;;4954584;28;20277;-86
2022/09/08 08:53:02;;;;;;;;;;;12.00;25.50;;;;;;4953858;28;20351;-86
2022/09/08 08:55:38;;;;;;;;;;;12.00;1.00;;;;;;4957886;28;19930;-86
2022/09/08 08:58:17;;;;;;;;;;;12.00;71.70;;;;;;4958100;28;19927;-86
2022/09/08 09:00:48;;;;;;;;;;;12.30;99.90;;;;;;4958009;28;19926;-86
2022/09/08 09:03:19;;;;;;;;;;;12.80;99.90;;;;;;4957923;28;20360;-87
2022/09/08 09:05:51;;;;;;;;;;;13.00;99.90;;;;;;4957642;28;20345;-86
2022/09/08 09:08:36;;;;;;;;;;;13.10;99.90;;;;;;4957977;28;19933;-86
2022/09/08 09:11:21;;;;;;;;;;;13.20;42.00;;;;;;4957940;28;20028;-87
2022/09/08 09:14:04;;;;;;;;;;;13.10;1.00;;;;;;4957444;28;20607;-86
2022/09/08 09:16:45;;;;;;;;;;;13.00;1.00;;;;;;4957449;28;19930;-86
2022/09/08 09:19:27;;;;;;;;;;;12.90;1.00;;;;;;4955931;28;19954;-86
2022/09/08 09:21:57;;;;;;;;;;;12.80;1.00;;;;;;4957102;28;20447;-85
2022/09/08 09:24:33;;;;;;;;;;;12.80;1.00;;;;;;4957653;28;20397;-86
2022/09/08 09:27:02;;;;;;;;;;;12.90;1.00;;;;;;4957111;28;20435;-87
2022/09/08 09:29:37;;;;;;;;;;;13.00;1.00;;;;;;4957535;28;19986;-87
2022/09/08 09:32:27;;;;;;;;;;;13.20;1.00;;;;;;4954190;28;19930;-87
2022/09/08 09:34:58;;;;;;;;;;;13.40;1.00;;;;;;4937943;29;19927;-87
2022/09/08 09:37:35;;;;;;;;;;;14.00;31.20;;;;;;4938378;29;19927;-87
2022/09/08 09:40:06;;;;;;;;;;;14.70;1.00;;;;;;4937863;29;19982;-87
2022/09/08 09:42:42;;;;;;;;;;;15.30;1.00;;;;;;4938190;29;20021;-87
2022/09/08 09:45:22;;;;;;;;;;;15.80;1.00;;;;;;4938208;29;19990;-87
2022/09/08 09:48:03;;;;;;;;;;;16.10;1.00;;;;;;4938133;29;19978;-87
2022/09/08 09:50:45;;;;;;;;;;;16.50;99.90;;;;;;4929371;29;19931;-87
2022/09/08 09:53:29;;;;;;;;;;;16.80;99.90;;;;;;4953738;29;19931;-86
2022/09/08 09:56:06;;;;;;;;;;;17.10;1.00;;;;;;4956391;28;19930;-86
2022/09/08 09:58:45;;;;;;;;;;;17.40;1.00;;;;;;4957097;28;19927;-87
2022/09/08 10:01:35;;;;;;;;;;;17.50;1.00;;;;;;4956931;28;20281;-86
2022/09/08 10:04:20;;;;;;;;;;;17.60;99.90;;;;;;4951204;28;19926;-86
2022/09/08 10:06:56;;;;;;;;;;;17.80;90.80;;;;;;4956005;28;19930;-86
2022/09/08 10:09:42;;;;;;;;;;;18.10;1.00;;;;;;4956788;28;19973;-85
2022/09/08 10:12:22;;;;;;;;;;;18.40;60.60;;;;;;4956702;28;19937;-85
2022/09/08 10:15:10;;;;;;;;;;;18.60;1.00;;;;;;4956346;28;19927;-86
2022/09/08 10:17:50;;;;;;;;;;;18.70;1.00;;;;;;4956623;28;19927;-85
2022/09/08 10:20:36;;;;;;;;;;;19.00;99.90;;;;;;4956791;28;19930;-85
2022/09/08 10:23:23;;;;;;;;;;;19.20;1.00;;;;;;4941762;28;19930;-85
2022/09/08 10:26:09;;;;;;;;;;;19.40;99.90;;;;;;4937331;29;19972;-85
2022/09/08 10:28:45;;;;;;;;;;;19.60;1.00;;;;;;4937078;29;19974;-85
2022/09/08 10:31:27;;;;;;;;;;;19.80;1.00;;;;;;4937017;29;19927;-85
2022/09/08 10:34:11;;;;;;;;;;;20.00;1.00;;;;;;4937126;29;20007;-85
2022/09/08 10:36:49;;;;;;;;;;;20.20;1.00;;;;;;4937063;29;19977;-85
2022/09/08 10:39:23;;;;;;;;;;;20.20;1.00;;;;;;4937216;29;19991;-85
2022/09/08 10:42:07;;;;;;;;;;;20.20;99.90;;;;;;4936688;29;20384;-85
2022/09/08 10:44:41;;;;;;;;;;;20.20;66.80;;;;;;4936570;29;19982;-84
2022/09/08 10:47:27;;;;;;;;;;;20.20;1.00;;;;;;4936885;29;19931;-85
2022/09/08 10:50:12;;;;;;;;;;;20.20;1.00;;;;;;4936549;29;20320;-84
2022/09/08 10:52:46;;;;;;;;;;;20.40;99.90;;;;;;4949885;29;19977;-84
2022/09/08 10:55:40;;;;;;;;;;;20.60;99.90;;;;;;4955312;28;19930;-83
2022/09/08 10:58:20;;;;;;;;;;;20.80;1.00;;;;;;4955612;28;20376;-84
2022/09/08 11:00:54;;;;;;;;;;;21.00;1.00;;;;;;4956063;28;19989;-84
2022/09/08 11:03:37;;;;;;;;;;;21.20;99.90;;;;;;4955781;28;19934;-84
2022/09/08 11:06:06;;;;;;;;;;;21.30;1.00;;;;;;4955601;28;19982;-84
2022/09/08 11:08:48;;;;;;;;;;;21.40;1.00;;;;;;4955590;28;19989;-83
2022/09/08 11:11:33;;;;;;;;;;;21.50;1.00;;;;;;4955917;28;19927;-84
2022/09/08 11:14:04;;;;;;;;;;;21.70;1.00;;;;;;4955301;28;20335;-83
2022/09/08 11:16:38;;;;;;;;;;;21.80;1.00;;;;;;4954521;28;19935;-85
2022/09/08 11:19:18;;;;;;;;;;;21.80;99.90;;;;;;4955482;28;19935;-83
2022/09/08 11:21:53;;;;;;;;;;;21.80;99.90;;;;;;4953409;28;20352;-84
2022/09/08 11:24:24;;;;;;;;;;;21.80;1.00;;;;;;4955292;28;20383;-83
2022/09/08 11:26:56;;;;;;;;;;;21.90;99.90;;;;;;4955447;28;19931;-83
2022/09/08 11:29:30;;;;;;;;;;;22.00;99.90;;;;;;4955280;28;20013;-84
2022/09/08 11:32:02;;;;;;;;;;;22.00;99.90;;;;;;4955365;28;19982;-84
2022/09/08 11:34:37;;;;;;;;;;;22.00;99.90;;;;;;4954946;28;19926;-84
2022/09/08 11:37:31;;;;;;;;;;;22.00;99.90;;;;;;4955186;28;19969;-84
2022/09/08 11:40:06;;;;;;;;;;;22.10;99.90;;;;;;4954823;28;19981;-84
2022/09/08 11:42:41;;;;;;;;;;;22.10;1.00;;;;;;4955147;28;20347;-84
2022/09/08 11:45:16;;;;;;;;;;;22.20;1.00;;;;;;4955133;28;20005;-85
2022/09/08 11:48:01;;;;;;;;;;;22.20;1.00;;;;;;4955021;28;19934;-84
2022/09/08 11:50:45;;;;;;;;;;;22.30;1.00;;;;;;4954264;28;19997;-83
2022/09/08 11:53:21;;;;;;;;;;;22.40;1.00;;;;;;4935818;29;19978;-85
2022/09/08 11:55:59;;;;;;;;;;;22.50;1.00;;;;;;4936196;29;19927;-85
2022/09/08 11:58:32;;;;;;;;;;;22.50;1.00;;;;;;4935477;29;19982;-84
2022/09/08 12:01:11;;;;;;;;;;;22.50;1.00;;;;;;4935673;29;20296;-83
2022/09/08 12:03:43;;;;;;;;;;;22.50;1.00;;;;;;4935956;29;19926;-84
2022/09/08 12:06:35;;;;;;;;;;;22.50;1.00;;;;;;4935581;29;20026;-84
2022/09/08 12:09:21;;;;;;;;;;;22.60;1.00;;;;;;4935592;29;19931;-86
2022/09/08 12:11:55;;;;;;;;;;;22.60;1.00;;;;;;4935642;29;19930;-84
2022/09/08 12:14:26;;;;;;;;;;;22.60;1.00;;;;;;4935603;29;20399;-85
2022/09/08 12:16:58;;;;;;;;;;;22.50;1.00;;;;;;4935773;29;19926;-84
2022/09/08 12:19:30;;;;;;;;;;;22.50;1.00;;;;;;4935673;29;19981;-84
2022/09/08 12:22:11;;;;;;;;;;;22.50;1.00;;;;;;4945239;29;19950;-85
2022/09/08 12:24:46;;;;;;;;;;;22.40;1.00;;;;;;4954523;28;19989;-84
2022/09/08 12:27:18;;;;;;;;;;;22.40;1.00;;;;;;4954630;28;19989;-85
2022/09/08 12:29:54;;;;;;;;;;;22.30;1.00;;;;;;4958001;28;19930;-85
2022/09/08 12:32:36;;;;;;;;;;;22.30;1.00;;;;;;4958782;28;19954;-85
2022/09/08 12:35:17;;;;;;;;;;;22.20;1.00;;;;;;4958552;28;19926;-85
2022/09/08 12:37:51;;;;;;;;;;;22.20;1.00;;;;;;4956652;29;19990;-85
2022/09/08 12:40:35;;;;;;;;;;;22.20;1.00;;;;;;4958379;28;20013;-84
2022/09/08 12:43:07;;;;;;;;;;;22.10;1.00;;;;;;4957991;28;20368;-85
2022/09/08 12:45:40;;;;;;;;;;;22.10;1.00;;;;;;4958331;28;19926;-85
2022/09/08 12:48:13;;;;;;;;;;;22.10;1.00;;;;;;4958268;28;19926;-85
2022/09/08 12:50:47;;;;;;;;;;;22.10;1.00;;;;;;4956089;28;20380;-85
2022/09/08 12:53:29;;;;;;;;;;;22.20;1.00;;;;;;4938580;29;20428;-85
2022/09/08 12:55:58;;;;;;;;;;;22.20;1.00;;;;;;4938958;29;19927;-85
2022/09/08 12:58:27;;;;;;;;;;;22.20;1.00;;;;;;4938491;29;19927;-84
2022/09/08 13:00:57;;;;;;;;;;;22.20;1.00;;;;;;4938979;29;19981;-84
2022/09/08 13:03:33;;;;;;;;;;;22.30;1.00;;;;;;4939051;29;19926;-85
2022/09/08 13:06:16;;;;;;;;;;;22.30;1.00;;;;;;4938721;29;19927;-84
2022/09/08 13:08:51;;;;;;;;;;;22.40;1.00;;;;;;4938654;29;20360;-84
2022/09/08 13:11:24;;;;;;;;;;;22.40;1.00;;;;;;4938383;29;19938;-85
2022/09/08 13:13:51;;;;;;;;;;;22.40;1.00;;;;;;4938948;29;19927;-85
2022/09/08 13:16:26;;;;;;;;;;;22.40;1.00;;;;;;4938275;29;19983;-86
2022/09/08 13:18:59;;;;;;;;;;;22.40;1.00;;;;;;4938385;29;19926;-85
2022/09/08 13:21:31;;;;;;;;;;;22.40;1.00;;;;;;4944548;29;19990;-86
2022/09/08 13:24:03;;;;;;;;;;;22.40;1.00;;;;;;4957278;28;19926;-85
2022/09/08 13:26:45;;;;;;;;;;;22.50;1.00;;;;;;4958385;28;19950;-83
2022/09/08 13:29:19;;;;;;;;;;;22.40;1.00;;;;;;4956730;28;20013;-83
2022/09/08 13:31:49;;;;;;;;;;;22.40;1.00;;;;;;4956864;28;19934;-84
2022/09/08 13:34:22;;;;;;;;;;;22.40;1.00;;;;;;4956629;28;20340;-83
2022/09/08 13:36:53;;;;;;;;;;;22.40;1.00;;;;;;4956339;28;19998;-84
2022/09/08 13:39:47;;;;;;;;;;;22.40;1.00;;;;;;4956173;28;19981;-84
2022/09/08 13:42:21;;;;;;;;;;;22.40;1.00;;;;;;4956068;28;19926;-83
2022/09/08 13:45:03;;;;;;;;;;;22.50;1.00;;;;;;4956115;28;20364;-84
2022/09/08 13:47:47;;;;;;;;;;;22.50;1.00;;;;;;4955400;28;19926;-84
2022/09/08 13:50:27;;;;;;;;;;;22.50;1.00;;;;;;4949998;28;19974;-84
2022/09/08 13:53:09;;;;;;;;;;;22.50;1.00;;;;;;4951962;28;20372;-85
2022/09/08 13:55:43;;;;;;;;;;;22.50;1.00;;;;;;4944518;28;19933;-85
2022/09/08 13:58:28;;;;;;;;;;;22.50;1.00;;;;;;4956324;28;19933;-84
2022/09/08 14:01:18;;;;;;;;;;;22.50;1.00;;;;;;4954465;28;19938;-85
2022/09/08 14:03:50;;;;;;;;;;;22.50;1.00;;;;;;4940142;28;20319;-84
2022/09/08 14:06:20;;;;;;;;;;;22.60;1.00;;;;;;4956223;28;19931;-84
2022/09/08 14:08:49;;;;;;;;;;;22.60;1.00;;;;;;4956059;28;20683;-84
2022/09/08 14:11:30;;;;;;;;;;;22.60;1.00;;;;;;4956238;28;19930;-84
2022/09/08 14:14:14;;;;;;;;;;;22.60;1.00;;;;;;4956275;28;19930;-86
2022/09/08 14:16:42;;;;;;;;;;;22.60;1.00;;;;;;4956154;28;19926;-85
2022/09/08 14:19:23;;;;;;;;;;;22.60;1.00;;;;;;4955885;28;20343;-85
2022/09/08 14:21:55;;;;;;;;;;;22.50;1.00;;;;;;4953350;28;19927;-84
2022/09/08 14:24:36;;;;;;;;;;;22.50;1.00;;;;;;4955706;28;20021;-85
2022/09/08 14:27:22;;;;;;;;;;;22.50;1.00;;;;;;4956031;28;19957;-85
2022/09/08 14:30:07;;;;;;;;;;;22.40;1.00;;;;;;4956075;28;19933;-85
2022/09/08 14:32:39;;;;;;;;;;;22.40;1.00;;;;;;4940745;28;20013;-85
2022/09/08 14:35:21;;;;;;;;;;;22.40;1.00;;;;;;4956057;28;19926;-83
2022/09/08 14:37:55;;;;;;;;;;;22.40;1.00;;;;;;4956001;28;20326;-84
2022/09/08 14:40:24;;;;;;;;;;;22.40;1.00;;;;;;4954916;28;19930;-84
2022/09/08 14:43:02;;;;;;;;;;;22.30;1.00;;;;;;4955467;28;19933;-83
2022/09/08 14:45:33;;;;;;;;;;;22.30;1.00;;;;;;4955720;28;20398;-84
2022/09/08 14:48:15;;;;;;;;;;;22.30;1.00;;;;;;4955028;28;19926;-84
2022/09/08 14:50:58;;;;;;;;;;;22.20;1.00;;;;;;4948938;28;20339;-86
2022/09/08 14:53:43;;;;;;;;;;;22.20;1.00;;;;;;4945800;28;19926;-86
2022/09/08 14:56:17;;;;;;;;;;;22.10;1.00;;;;;;4955524;28;19926;-85
2022/09/08 14:58:58;;;;;;;;;;;22.10;1.00;;;;;;4955282;28;19977;-86
2022/09/08 15:01:29;;;;;;;;;;;22.00;1.00;;;;;;4949644;28;19934;-86
2022/09/08 15:03:58;;;;;;;;;;;21.90;1.00;;;;;;4951005;28;19982;-87
2022/09/08 15:06:37;;;;;;;;;;;21.90;1.00;;;;;;4955748;28;19926;-87